Terminal Aerodrome Forecast
Issued by NWS

Home | Current Version | Previous Version | Text Only | Print | Product List | Glossary On
Versions: 1 2 3 4 5 6 7 8 9 10 11 12 13 14 15 16 17 18 19
000
FTUS45 KRIW 302300
TAFRKS
TAF
KRKS 302337Z 3100/3124 06011KT P6SM VCSH SCT012 OVC020
      TEMPO 3103/3107 4SM -SHSN BKN012
     FM311500 29009KT P6SM SCT030 OVC080
     FM312100 29015G25KT P6SM SCT030=

USA.gov is the U.S. government's official web portal to all federal, state and local government web resources and services.